Time;durP1;ratioP1;P1;durP2;ratioP2;P2;SDS_P1;SDS_P2;PMS_P1;PMS_P2;Temp;Humidity;BMP_temperature;BMP_pressure;BME280_temperature;BME280_humidity;BME280_pressure;Samples;Min_cycle;Max_cycle;Signal;HPM_P1;HPM_P2
2023/06/29 00:00:09;;;;;;;;;;;;;;;19.29;85.79;99538.25;331052;29;1013;-80
2023/06/29 00:00:20;;;;;;;;;;;;;;;19.28;85.82;99536.56;332060;29;1171;-79
2023/06/29 00:00:31;;;;;;;;;;;;;;;19.30;86.10;99534.63;329066;30;1667;-78
2023/06/29 00:00:41;;;;;;;;;;;;;;;19.32;86.03;99538.00;327164;30;1436;-78
2023/06/29 00:00:52;;;;;;;;;;;;;;;19.32;86.59;99535.34;324421;30;2094;-79
2023/06/29 00:01:02;;;;;;;;;;;;;;;19.34;86.45;99530.78;326541;29;2037;-79
2023/06/29 00:01:12;;;;;;;;;;;;;;;19.36;86.90;99530.66;329595;30;792;-79
2023/06/29 00:01:23;;;;;;;;;;;;;;;19.33;87.08;99539.69;326613;30;2151;-78
2023/06/29 00:01:33;;;;;;;;;;;;;;;19.33;86.63;99539.69;325053;30;2853;-78
2023/06/29 00:01:45;;;;;;;;;;;;;;;19.31;86.45;99538.97;326452;30;3138;-78
2023/06/29 00:01:55;;;;;;;;;;;;;;;19.31;86.31;99536.31;327010;30;1298;-78
2023/06/29 00:02:05;;;;;;;;;;;;;;;19.31;86.22;99533.66;325464;30;1714;-78
2023/06/29 00:02:16;;;;;;;;;;;;;;;19.34;86.23;99535.25;323352;30;1408;-77
2023/06/29 00:02:26;;;;;;;;;;;;;;;19.34;86.22;99528.13;325944;30;1340;-80
2023/06/29 00:02:36;;;;;;;;;;;;;;;19.35;86.51;99536.94;325157;30;1874;-79
2023/06/29 00:02:47;;;;;;;;;;;;;;;19.35;86.52;99537.78;324474;30;2415;-79
2023/06/29 00:02:57;;;;;;;;;;;;;;;19.35;86.14;99536.94;323650;30;833;-78
2023/06/29 00:03:11;;;;;;;;;;;;;;;19.34;86.22;99535.25;318271;30;2621;-78
2023/06/29 00:03:21;;;;;;;;;;;;;;;19.31;85.68;99538.97;315803;31;2801;-78
2023/06/29 00:03:31;;;;;;;;;;;;;;;19.32;86.00;99537.16;316836;30;3129;-78
2023/06/29 00:03:42;;;;;;;;;;;;;;;19.33;85.84;99533.56;318769;31;770;-78
2023/06/29 00:03:52;;;;;;;;;;;;;;;19.31;85.64;99535.47;319001;30;2958;-79
2023/06/29 00:04:02;;;;;;;;;;;;;;;19.27;85.50;99545.47;317944;31;2960;-79
2023/06/29 00:04:18;;;;;;;;;;;;;;;19.25;85.61;99532.34;316141;31;2252;-79
2023/06/29 00:04:29;;;;;;;;;;;;;;;19.25;85.98;99547.41;315035;31;2097;-79
2023/06/29 00:04:41;;;;;;;;;;;;;;;19.27;86.07;99534.88;316569;31;972;-79
2023/06/29 00:04:54;;;;;;;;;;;;;;;19.28;85.99;99539.22;316047;31;3341;-79
2023/06/29 00:05:06;;;;;;;;;;;;;;;19.26;86.18;99533.19;315311;31;3482;-79
2023/06/29 00:05:18;;;;;;;;;;;;;;;19.25;86.16;99537.66;311554;31;4067;-78
2023/06/29 00:05:28;;;;;;;;;;;;;;;19.23;86.38;99531.59;309812;31;5054;-78
2023/06/29 00:05:40;;;;;;;;;;;;;;;19.20;86.56;99537.16;311078;31;838;-78
2023/06/29 00:05:50;;;;;;;;;;;;;;;19.20;86.66;99528.34;312309;31;4644;-78
2023/06/29 00:06:01;;;;;;;;;;;;;;;19.17;86.79;99544.50;310701;31;3769;-78
2023/06/29 00:06:11;;;;;;;;;;;;;;;19.17;86.48;99536.53;310980;31;871;-78
2023/06/29 00:06:22;;;;;;;;;;;;;;;19.16;86.08;99527.75;309036;31;4251;-79
2023/06/29 00:06:36;;;;;;;;;;;;;;;19.19;86.50;99535.47;307921;31;3257;-79
2023/06/29 00:06:46;;;;;;;;;;;;;;;19.23;85.83;99528.13;305248;32;3167;-78
2023/06/29 00:06:56;;;;;;;;;;;;;;;19.22;86.22;99534.38;304406;32;1316;-78
2023/06/29 00:07:07;;;;;;;;;;;;;;;19.24;86.23;99535.09;306090;32;4055;-78
2023/06/29 00:07:17;;;;;;;;;;;;;;;19.25;86.41;99526.19;306338;32;5101;-78
2023/06/29 00:07:28;;;;;;;;;;;;;;;19.23;86.45;99536.06;305512;32;1297;-78
2023/06/29 00:07:38;;;;;;;;;;;;;;;19.18;86.30;99535.59;303436;32;1326;-79
2023/06/29 00:07:48;;;;;;;;;;;;;;;19.17;86.17;99528.59;299138;32;7750;-79
2023/06/29 00:07:59;;;;;;;;;;;;;;;19.16;86.44;99538.34;297966;32;7451;-79
2023/06/29 00:08:11;;;;;;;;;;;;;;;19.15;86.09;99535.81;299102;33;1468;-79
2023/06/29 00:08:22;;;;;;;;;;;;;;;19.17;86.19;99536.53;295666;33;6176;-79
2023/06/29 00:08:35;;;;;;;;;;;;;;;19.17;86.34;99531.25;293793;33;5958;-79
2023/06/29 00:08:47;;;;;;;;;;;;;;;19.19;86.25;99537.28;292811;33;4917;-79
2023/06/29 00:08:57;;;;;;;;;;;;;;;19.19;86.55;99537.28;291269;34;1376;-79
2023/06/29 00:09:08;;;;;;;;;;;;;;;19.14;86.34;99537.63;289344;33;4187;-79
2023/06/29 00:09:19;;;;;;;;;;;;;;;19.12;86.16;99536.06;289330;33;6289;-79
2023/06/29 00:09:29;;;;;;;;;;;;;;;19.12;86.13;99536.06;290545;33;7592;-79
2023/06/29 00:09:39;;;;;;;;;;;;;;;19.13;86.27;99529.78;289331;34;1445;-79
2023/06/29 00:11:25;;;;;;;;;;;;;;;19.12;86.73;99526.28;2496682;27;19937;-78
2023/06/29 00:11:36;;;;;;;;;;;;;;;19.12;86.66;99530.75;354478;27;1344;-78
2023/06/29 00:11:46;;;;;;;;;;;;;;;19.12;86.63;99531.59;353391;28;899;-78
2023/06/29 00:11:56;;;;;;;;;;;;;;;19.14;86.73;99534.13;350459;28;1223;-78
2023/06/29 00:12:07;;;;;;;;;;;;;;;19.14;86.81;99534.97;349055;28;1209;-78
2023/06/29 00:12:17;;;;;;;;;;;;;;;19.15;86.72;99533.16;350522;28;1301;-78
2023/06/29 00:12:27;;;;;;;;;;;;;;;19.16;86.40;99533.03;351931;28;1305;-78
2023/06/29 00:12:37;;;;;;;;;;;;;;;19.18;85.71;99535.59;351300;28;1172;-78
2023/06/29 00:12:48;;;;;;;;;;;;;;;19.17;85.60;99533.88;351518;28;1234;-78
2023/06/29 00:12:58;;;;;;;;;;;;;;;19.19;85.53;99534.63;349062;28;1339;-78
2023/06/29 00:13:08;;;;;;;;;;;;;;;19.21;85.50;99525.56;349154;28;839;-78
2023/06/29 00:13:21;;;;;;;;;;;;;;;19.24;85.26;99529.81;348324;28;1164;-78
2023/06/29 00:13:31;;;;;;;;;;;;;;;19.25;85.22;99532.34;349105;28;1357;-78
2023/06/29 00:13:42;;;;;;;;;;;;;;;19.19;85.36;99531.97;351751;28;1206;-78
2023/06/29 00:13:52;;;;;;;;;;;;;;;19.12;85.05;99528.94;351776;28;807;-78
2023/06/29 00:14:02;;;;;;;;;;;;;;;19.10;85.21;99532.66;350420;28;1398;-78
2023/06/29 00:14:13;;;;;;;;;;;;;;;19.09;85.52;99533.63;351715;28;1448;-78
2023/06/29 00:14:23;;;;;;;;;;;;;;;19.07;85.85;99530.25;351940;28;875;-78
2023/06/29 00:14:34;;;;;;;;;;;;;;;19.06;86.09;99532.06;350978;28;1381;-79
2023/06/29 00:14:44;;;;;;;;;;;;;;;19.07;86.02;99525.78;350329;28;1215;-78
2023/06/29 00:14:54;;;;;;;;;;;;;;;19.08;86.38;99529.28;351840;28;1180;-78
2023/06/29 00:15:05;;;;;;;;;;;;;;;19.08;86.23;99526.63;351637;28;1321;-78
2023/06/29 00:15:16;;;;;;;;;;;;;;;19.08;86.20;99534.59;348850;28;1460;-78
2023/06/29 00:15:27;;;;;;;;;;;;;;;19.07;86.29;99522.28;347852;28;1259;-79
2023/06/29 00:15:38;;;;;;;;;;;;;;;19.07;86.25;99527.59;346363;28;1287;-79
2023/06/29 00:15:48;;;;;;;;;;;;;;;19.08;86.28;99529.28;344780;28;1378;-79
2023/06/29 00:15:59;;;;;;;;;;;;;;;19.10;86.43;99522.06;343591;28;1197;-79
2023/06/29 00:16:09;;;;;;;;;;;;;;;19.10;86.35;99524.72;346477;28;840;-78
2023/06/29 00:16:19;;;;;;;;;;;;;;;19.11;86.50;99523.75;346516;28;1617;-78
2023/06/29 00:16:30;;;;;;;;;;;;;;;19.10;86.60;99527.38;346277;28;1364;-78
2023/06/29 00:16:41;;;;;;;;;;;;;;;19.10;86.46;99516.75;345079;28;840;-78
2023/06/29 00:16:51;;;;;;;;;;;;;;;19.11;86.64;99524.59;342468;28;1192;-78
2023/06/29 00:17:01;;;;;;;;;;;;;;;19.12;86.29;99520.97;343787;28;1076;-78
2023/06/29 00:17:14;;;;;;;;;;;;;;;19.13;86.06;99527.97;346359;28;891;-78
2023/06/29 00:17:25;;;;;;;;;;;;;;;19.08;86.10;99521.34;342251;28;1253;-78
2023/06/29 00:17:35;;;;;;;;;;;;;;;19.05;85.99;99524.25;340867;29;1081;-79
2023/06/29 00:17:47;;;;;;;;;;;;;;;18.98;86.14;99518.56;341551;28;1127;-79
2023/06/29 00:17:57;;;;;;;;;;;;;;;18.99;86.38;99519.41;342961;28;1057;-79
2023/06/29 00:18:09;;;;;;;;;;;;;;;19.00;86.18;99521.94;340928;28;1242;-79
2023/06/29 00:18:19;;;;;;;;;;;;;;;19.02;85.97;99513.88;339753;29;845;-79
2023/06/29 00:18:29;;;;;;;;;;;;;;;18.98;86.27;99518.56;338393;29;1568;-79
2023/06/29 00:18:39;;;;;;;;;;;;;;;18.94;86.09;99512.66;340930;29;1394;-79
2023/06/29 00:18:50;;;;;;;;;;;;;;;18.89;85.98;99517.47;341048;29;1325;-79
2023/06/29 00:19:01;;;;;;;;;;;;;;;18.86;86.18;99515.06;339978;28;1198;-79
2023/06/29 00:19:14;;;;;;;;;;;;;;;18.86;86.51;99520.34;340870;29;1326;-79
2023/06/29 00:19:24;;;;;;;;;;;;;;;18.88;86.15;99514.94;340912;29;1430;-79
2023/06/29 00:19:35;;;;;;;;;;;;;;;18.87;86.48;99516.75;338759;29;1297;-79
2023/06/29 00:19:47;;;;;;;;;;;;;;;18.89;86.87;99514.81;336562;29;1347;-79
2023/06/29 00:19:58;;;;;;;;;;;;;;;18.89;86.79;99513.97;335352;29;3562;-79
2023/06/29 00:20:12;;;;;;;;;;;;;;;18.87;86.65;99515.91;333099;29;3000;-79
2023/06/29 00:20:24;;;;;;;;;;;;;;;18.87;86.37;99514.09;333871;29;2898;-79
2023/06/29 00:20:35;;;;;;;;;;;;;;;18.89;86.39;99513.97;330467;29;2953;-78
2023/06/29 00:20:46;;;;;;;;;;;;;;;18.91;86.70;99515.53;335876;29;873;-78
2023/06/29 00:20:57;;;;;;;;;;;;;;;18.92;86.93;99513.75;337073;29;1219;-78
2023/06/29 00:21:07;;;;;;;;;;;;;;;18.93;86.84;99512.78;334409;29;956;-78
2023/06/29 00:21:17;;;;;;;;;;;;;;;18.91;86.76;99504.94;333821;29;1339;-79
2023/06/29 00:21:31;;;;;;;;;;;;;;;18.93;86.62;99516.28;334699;29;839;-79
2023/06/29 00:21:41;;;;;;;;;;;;;;;18.90;86.43;99513.84;332066;29;1371;-79
2023/06/29 00:21:52;;;;;;;;;;;;;;;18.91;86.46;99517.34;329535;29;1870;-79
2023/06/29 00:22:02;;;;;;;;;;;;;;;18.91;86.67;99510.25;325194;30;4681;-78
2023/06/29 00:22:13;;;;;;;;;;;;;;;18.93;86.99;99518.94;325729;30;1341;-78
2023/06/29 00:22:23;;;;;;;;;;;;;;;18.94;87.03;99517.97;321197;30;848;-79
2023/06/29 00:22:34;;;;;;;;;;;;;;;18.97;87.25;99516.03;322607;30;1460;-79
2023/06/29 00:22:47;;;;;;;;;;;;;;;18.94;87.51;99512.66;323433;30;1548;-78
2023/06/29 00:22:59;;;;;;;;;;;;;;;18.90;86.79;99511.19;322239;30;1272;-79
2023/06/29 00:23:09;;;;;;;;;;;;;;;18.84;86.29;99514.31;322348;30;1339;-80
2023/06/29 00:23:20;;;;;;;;;;;;;;;18.80;86.39;99517.31;320775;30;1595;-79
2023/06/29 00:23:32;;;;;;;;;;;;;;;18.80;86.00;99519.97;320626;30;2097;-79
2023/06/29 00:23:42;;;;;;;;;;;;;;;18.79;86.49;99508.53;322246;30;1320;-80
2023/06/29 00:23:53;;;;;;;;;;;;;;;18.80;86.29;99512.03;322373;30;2373;-79
2023/06/29 00:24:04;;;;;;;;;;;;;;;18.79;86.48;99519.13;322932;30;2232;-79
2023/06/29 00:24:14;;;;;;;;;;;;;;;18.79;86.60;99519.13;323996;30;2381;-78
2023/06/29 00:24:26;;;;;;;;;;;;;;;18.80;86.85;99520.81;322312;30;1218;-80
2023/06/29 00:24:42;;;;;;;;;;;;;;;18.80;86.99;99515.50;319546;30;2293;-78
2023/06/29 00:24:56;;;;;;;;;;;;;;;18.80;87.21;99518.16;320579;30;1617;-79
2023/06/29 00:25:10;;;;;;;;;;;;;;;18.79;87.22;99519.13;320481;30;1325;-80
2023/06/29 00:25:21;;;;;;;;;;;;;;;18.81;87.05;99521.66;321549;30;1962;-79
2023/06/29 00:25:32;;;;;;;;;;;;;;;18.82;86.99;99518.06;318844;30;2353;-79
2023/06/29 00:25:46;;;;;;;;;;;;;;;18.80;87.03;99518.16;317568;31;1227;-79
2023/06/29 00:25:57;;;;;;;;;;;;;;;18.78;86.72;99519.25;313053;31;1191;-79
2023/06/29 00:26:07;;;;;;;;;;;;;;;18.75;86.27;99522.97;310529;31;2991;-79
2023/06/29 00:26:18;;;;;;;;;;;;;;;18.74;86.36;99521.28;310476;31;3514;-78
2023/06/29 00:26:28;;;;;;;;;;;;;;;18.75;86.49;99522.97;312511;31;1232;-78
2023/06/29 00:26:39;;;;;;;;;;;;;;;18.76;86.26;99522.00;315413;31;1455;-78
2023/06/29 00:26:49;;;;;;;;;;;;;;;18.79;86.52;99523.59;317474;30;2900;-78
2023/06/29 00:26:59;;;;;;;;;;;;;;;18.81;86.55;99533.13;314754;31;2072;-79
2023/06/29 00:27:12;;;;;;;;;;;;;;;18.83;86.59;99525.88;314324;31;977;-79
2023/06/29 00:27:22;;;;;;;;;;;;;;;18.73;86.19;99526.69;315906;31;2001;-79
2023/06/29 00:27:32;;;;;;;;;;;;;;;18.72;86.14;99527.66;311319;31;3080;-79
2023/06/29 00:27:43;;;;;;;;;;;;;;;18.69;86.25;99520.78;307682;32;1235;-80
2023/06/29 00:27:53;;;;;;;;;;;;;;;18.69;86.38;99523.44;306793;32;3886;-79
2023/06/29 00:28:03;;;;;;;;;;;;;;;18.69;86.88;99534.03;308094;31;3603;-79
2023/06/29 00:28:13;;;;;;;;;;;;;;;18.70;87.03;99518.97;307673;31;3914;-80
2023/06/29 00:28:24;;;;;;;;;;;;;;;18.72;87.61;99527.66;303348;32;1367;-79
2023/06/29 00:28:34;;;;;;;;;;;;;;;18.71;87.64;99524.16;304824;32;4839;-79
2023/06/29 00:28:44;;;;;;;;;;;;;;;18.69;87.16;99522.59;303326;32;4818;-79
2023/06/29 00:28:55;;;;;;;;;;;;;;;18.64;86.72;99525.59;298128;33;1331;-79
2023/06/29 00:29:05;;;;;;;;;;;;;;;18.66;87.10;99528.13;297745;32;3985;-79
2023/06/29 00:29:16;;;;;;;;;;;;;;;18.68;87.02;99521.75;296507;32;3081;-79
2023/06/29 00:29:27;;;;;;;;;;;;;;;18.65;86.59;99529.94;299651;33;889;-79
2023/06/29 00:29:38;;;;;;;;;;;;;;;18.63;86.52;99528.38;298883;32;3137;-79
2023/06/29 00:29:48;;;;;;;;;;;;;;;18.62;86.52;99522.22;300653;32;4074;-79
2023/06/29 00:29:59;;;;;;;;;;;;;;;18.62;86.70;99522.22;300882;32;5700;-79
2023/06/29 00:30:09;;;;;;;;;;;;;;;18.63;86.63;99526.53;300053;32;1373;-78
2023/06/29 00:30:20;;;;;;;;;;;;;;;18.64;86.17;99524.75;292258;33;6261;-78
2023/06/29 00:30:30;;;;;;;;;;;;;;;18.63;86.34;99526.53;290677;33;5820;-79
2023/06/29 00:30:40;;;;;;;;;;;;;;;18.66;86.22;99530.78;295344;33;1068;-79
2023/06/29 00:30:51;;;;;;;;;;;;;;;18.65;86.11;99529.94;292928;33;6525;-78
2023/06/29 00:31:01;;;;;;;;;;;;;;;18.64;85.95;99530.03;294216;33;6912;-78
2023/06/29 00:31:11;;;;;;;;;;;;;;;18.65;85.95;99526.44;295366;33;787;-79
2023/06/29 00:31:24;;;;;;;;;;;;;;;18.67;85.78;99529.81;294379;33;5614;-78
2023/06/29 00:31:34;;;;;;;;;;;;;;;18.69;85.87;99527.88;293743;33;4013;-79
2023/06/29 00:31:44;;;;;;;;;;;;;;;18.70;86.05;99525.13;289900;33;3844;-79
2023/06/29 00:31:54;;;;;;;;;;;;;;;18.65;85.52;99531.72;290464;34;1232;-79
2023/06/29 00:32:05;;;;;;;;;;;;;;;18.61;85.68;99531.16;286826;34;6234;-79
2023/06/29 00:32:15;;;;;;;;;;;;;;;18.60;85.51;99534.75;283836;34;9423;-79
2023/06/29 00:32:25;;;;;;;;;;;;;;;18.60;85.19;99535.59;287564;34;813;-79
2023/06/29 00:33:58;;;;;;;;;;;;;;;18.71;85.76;99542.72;2504333;27;19948;-79
2023/06/29 00:34:08;;;;;;;;;;;;;;;18.73;85.70;99539.97;353913;27;1221;-79
2023/06/29 00:34:19;;;;;;;;;;;;;;;18.74;85.77;99545.16;350367;28;1285;-79
2023/06/29 00:34:29;;;;;;;;;;;;;;;18.71;85.60;99537.41;350519;28;1464;-79
2023/06/29 00:34:39;;;;;;;;;;;;;;;18.70;85.61;99538.38;349320;28;880;-78
2023/06/29 00:34:49;;;;;;;;;;;;;;;18.70;85.89;99541.03;350512;28;1236;-79
2023/06/29 00:35:00;;;;;;;;;;;;;;;18.69;86.17;99543.81;347604;28;1432;-78
2023/06/29 00:35:10;;;;;;;;;;;;;;;18.69;86.25;99534.03;349125;28;1188;-78
2023/06/29 00:35:20;;;;;;;;;;;;;;;18.69;86.29;99535.84;350452;28;1575;-78
2023/06/29 00:35:31;;;;;;;;;;;;;;;18.70;86.15;99537.53;350495;28;1267;-79
2023/06/29 00:35:41;;;;;;;;;;;;;;;18.60;86.21;99548.84;350254;28;1524;-78
2023/06/29 00:35:52;;;;;;;;;;;;;;;18.59;86.29;99543.63;349212;28;804;-79
2023/06/29 00:36:02;;;;;;;;;;;;;;;18.60;86.15;99540.06;350443;28;1322;-78
2023/06/29 00:36:14;;;;;;;;;;;;;;;18.62;86.30;99547.91;347836;28;1247;-79
2023/06/29 00:36:24;;;;;;;;;;;;;;;18.63;86.38;99550.41;351445;28;1243;-78
2023/06/29 00:36:35;;;;;;;;;;;;;;;18.65;86.22;99532.56;354628;27;1256;-79
2023/06/29 00:36:45;;;;;;;;;;;;;;;18.61;86.08;99541.75;351821;28;1389;-79
2023/06/29 00:36:55;;;;;;;;;;;;;;;18.56;85.87;99544.72;350443;28;1215;-79
2023/06/29 00:37:05;;;;;;;;;;;;;;;18.53;86.09;99544.94;350562;28;839;-79
2023/06/29 00:37:16;;;;;;;;;;;;;;;18.53;86.15;99538.78;347828;28;845;-79
2023/06/29 00:37:26;;;;;;;;;;;;;;;18.54;86.56;99545.78;347701;28;946;-78
2023/06/29 00:37:36;;;;;;;;;;;;;;;18.55;86.55;99540.38;347606;28;1204;-78
2023/06/29 00:37:47;;;;;;;;;;;;;;;18.55;86.96;99547.47;349052;28;978;-78
2023/06/29 00:37:57;;;;;;;;;;;;;;;18.59;86.90;99546.28;347635;28;807;-78
2023/06/29 00:38:07;;;;;;;;;;;;;;;18.62;86.99;99554.03;348891;28;1467;-79
2023/06/29 00:38:18;;;;;;;;;;;;;;;18.65;86.88;99548.47;349138;28;1390;-78
2023/06/29 00:38:28;;;;;;;;;;;;;;;18.66;86.66;99551.97;350194;28;3307;-78
2023/06/29 00:38:38;;;;;;;;;;;;;;;18.66;86.61;99542.22;349772;28;2740;-78
2023/06/29 00:38:48;;;;;;;;;;;;;;;18.67;86.76;99545.72;347748;28;4077;-78
2023/06/29 00:39:00;;;;;;;;;;;;;;;18.66;86.46;99544.88;344201;28;3101;-78
2023/06/29 00:39:10;;;;;;;;;;;;;;;18.65;85.99;99547.63;343847;28;2971;-78
2023/06/29 00:39:20;;;;;;;;;;;;;;;18.62;86.16;99543.44;345653;28;1798;-78
2023/06/29 00:39:31;;;;;;;;;;;;;;;18.62;86.01;99548.75;347673;28;1228;-78
2023/06/29 00:39:41;;;;;;;;;;;;;;;18.60;85.82;99545.38;347788;28;891;-78
2023/06/29 00:39:51;;;;;;;;;;;;;;;18.63;86.07;99547.75;348330;28;1095;-78
2023/06/29 00:40:02;;;;;;;;;;;;;;;18.65;86.05;99548.47;347711;28;1111;-79
2023/06/29 00:40:13;;;;;;;;;;;;;;;18.66;86.38;99544.88;346414;28;738;-78
2023/06/29 00:40:23;;;;;;;;;;;;;;;18.66;86.04;99544.03;343604;28;839;-78
2023/06/29 00:40:33;;;;;;;;;;;;;;;18.66;85.63;99547.53;345656;28;1220;-78
2023/06/29 00:40:44;;;;;;;;;;;;;;;18.67;85.71;99543.91;345090;28;1220;-78
2023/06/29 00:40:54;;;;;;;;;;;;;;;18.69;85.41;99549.94;347713;28;1015;-78
2023/06/29 00:41:04;;;;;;;;;;;;;;;18.69;85.24;99539.34;347658;28;1199;-78
2023/06/29 00:41:14;;;;;;;;;;;;;;;18.67;85.28;99551.88;348950;28;1194;-78
2023/06/29 00:41:24;;;;;;;;;;;;;;;18.65;85.46;99543.19;349129;28;984;-78
2023/06/29 00:41:35;;;;;;;;;;;;;;;18.63;85.61;99547.75;348592;28;1288;-78
2023/06/29 00:41:51;;;;;;;;;;;;;;;18.65;85.84;99550.28;345133;28;900;-78
2023/06/29 00:42:01;;;;;;;;;;;;;;;18.64;85.96;99553.91;342259;28;1285;-78
2023/06/29 00:42:11;;;;;;;;;;;;;;;18.63;86.26;99549.59;338987;29;1534;-78
2023/06/29 00:42:22;;;;;;;;;;;;;;;18.60;86.24;99551.50;341414;28;1256;-78
2023/06/29 00:42:32;;;;;;;;;;;;;;;18.62;86.53;99554.03;342621;28;1304;-78
2023/06/29 00:42:42;;;;;;;;;;;;;;;18.62;86.31;99548.75;341048;29;825;-78
2023/06/29 00:42:53;;;;;;;;;;;;;;;18.63;86.40;99555.72;340346;29;1918;-78
2023/06/29 00:43:03;;;;;;;;;;;;;;;18.65;86.37;99552.94;338299;29;1264;-79
2023/06/29 00:43:13;;;;;;;;;;;;;;;18.62;86.27;99554.03;339696;29;1322;-79
2023/06/29 00:43:24;;;;;;;;;;;;;;;18.61;86.46;99552.34;338737;29;812;-79
2023/06/29 00:43:34;;;;;;;;;;;;;;;18.62;86.18;99548.75;336989;29;1220;-78
2023/06/29 00:43:45;;;;;;;;;;;;;;;18.60;86.57;99548.00;337099;29;1304;-78
2023/06/29 00:43:55;;;;;;;;;;;;;;;18.55;86.54;99550.13;334283;29;1467;-78
2023/06/29 00:44:05;;;;;;;;;;;;;;;18.50;86.64;99547.81;335380;29;1882;-78
2023/06/29 00:44:16;;;;;;;;;;;;;;;18.49;86.77;99547.94;337059;29;1106;-78
2023/06/29 00:44:26;;;;;;;;;;;;;;;18.49;86.94;99553.22;335387;29;1644;-78
2023/06/29 00:44:36;;;;;;;;;;;;;;;18.49;87.04;99547.94;333808;29;1315;-79
2023/06/29 00:44:47;;;;;;;;;;;;;;;18.50;86.85;99554.91;334483;29;1217;-78
2023/06/29 00:44:58;;;;;;;;;;;;;;;18.50;86.84;99549.63;331995;29;898;-78
2023/06/29 00:45:08;;;;;;;;;;;;;;;18.50;86.83;99552.28;332674;29;1480;-78
2023/06/29 00:45:18;;;;;;;;;;;;;;;18.52;87.02;99550.34;333158;29;1194;-78
2023/06/29 00:45:29;;;;;;;;;;;;;;;18.54;86.82;99551.09;332209;29;1323;-78
2023/06/29 00:45:39;;;;;;;;;;;;;;;18.53;86.59;99552.91;332628;29;1460;-78
2023/06/29 00:45:49;;;;;;;;;;;;;;;18.53;86.77;99554.69;329289;29;1812;-78
2023/06/29 00:45:59;;;;;;;;;;;;;;;18.50;86.87;99549.63;325798;30;1217;-78
2023/06/29 00:46:10;;;;;;;;;;;;;;;18.50;86.97;99557.56;325865;30;1991;-78
2023/06/29 00:46:20;;;;;;;;;;;;;;;18.48;87.09;99554.19;324701;30;2084;-78
2023/06/29 00:46:30;;;;;;;;;;;;;;;18.48;87.16;99546.25;319834;30;1371;-78
2023/06/29 00:46:40;;;;;;;;;;;;;;;18.48;87.25;99551.53;317163;30;2011;-79
2023/06/29 00:46:51;;;;;;;;;;;;;;;18.46;87.23;99550.81;317629;30;2200;-79
2023/06/29 00:47:01;;;;;;;;;;;;;;;18.47;87.21;99555.16;321287;30;1328;-78
2023/06/29 00:47:12;;;;;;;;;;;;;;;18.41;87.22;99556.44;322408;30;2183;-78
2023/06/29 00:47:22;;;;;;;;;;;;;;;18.40;86.83;99551.25;322142;30;1558;-78
2023/06/29 00:47:32;;;;;;;;;;;;;;;18.34;87.19;99555.22;321097;30;1213;-79
2023/06/29 00:47:43;;;;;;;;;;;;;;;18.33;87.20;99552.66;319808;30;3736;-79
2023/06/29 00:47:53;;;;;;;;;;;;;;;18.34;87.41;99549.91;315237;31;2904;-78
2023/06/29 00:48:04;;;;;;;;;;;;;;;18.32;87.57;99553.63;311651;31;2863;-78
2023/06/29 00:48:14;;;;;;;;;;;;;;;18.31;87.64;99549.28;311772;31;3017;-78
2023/06/29 00:48:25;;;;;;;;;;;;;;;18.30;87.66;99551.09;309872;31;2662;-78
2023/06/29 00:48:35;;;;;;;;;;;;;;;18.31;87.56;99549.28;309804;31;2339;-78
2023/06/29 00:48:46;;;;;;;;;;;;;;;18.33;87.65;99550.88;309690;31;1285;-78
2023/06/29 00:48:56;;;;;;;;;;;;;;;18.34;87.77;99544.59;307968;31;2602;-78
2023/06/29 00:49:06;;;;;;;;;;;;;;;18.33;87.82;99552.66;306629;31;2387;-78
2023/06/29 00:49:16;;;;;;;;;;;;;;;18.33;88.00;99547.38;306608;32;1051;-78
2023/06/29 00:49:27;;;;;;;;;;;;;;;18.32;88.04;99548.31;303035;32;2498;-78
2023/06/29 00:49:37;;;;;;;;;;;;;;;18.35;88.03;99553.41;302518;32;1996;-79
2023/06/29 00:49:47;;;;;;;;;;;;;;;18.36;88.25;99547.16;303319;32;1225;-80
2023/06/29 00:49:58;;;;;;;;;;;;;;;18.35;88.31;99545.44;294584;33;1239;-80
2023/06/29 00:50:08;;;;;;;;;;;;;;;18.36;88.21;99547.16;293113;33;2654;-78
2023/06/29 00:50:20;;;;;;;;;;;;;;;18.36;88.00;99552.44;293769;33;2974;-79
2023/06/29 00:50:30;;;;;;;;;;;;;;;18.34;88.11;99547.25;296618;33;870;-78
2023/06/29 00:50:40;;;;;;;;;;;;;;;18.33;88.14;99542.91;291230;33;3586;-79
2023/06/29 00:50:51;;;;;;;;;;;;;;;18.27;87.75;99546.84;288277;33;3318;-78
2023/06/29 00:51:01;;;;;;;;;;;;;;;18.22;87.32;99546.34;288476;34;904;-78
2023/06/29 00:51:11;;;;;;;;;;;;;;;18.22;87.46;99543.69;292389;33;3570;-78
2023/06/29 00:51:22;;;;;;;;;;;;;;;18.24;87.45;99544.44;291253;33;3116;-80
2023/06/29 00:51:32;;;;;;;;;;;;;;;18.26;87.69;99547.81;292292;33;855;-78
2023/06/29 00:51:44;;;;;;;;;;;;;;;18.29;87.64;99541.44;286480;34;1877;-78
2023/06/29 00:51:54;;;;;;;;;;;;;;;18.33;87.83;99553.50;287408;34;2419;-78
2023/06/29 00:52:05;;;;;;;;;;;;;;;18.36;88.17;99547.16;286189;34;3127;-78
2023/06/29 00:52:16;;;;;;;;;;;;;;;18.39;88.19;99552.22;287509;34;883;-78
2023/06/29 00:52:27;;;;;;;;;;;;;;;18.35;88.51;99554.25;286903;34;3663;-78
2023/06/29 00:52:37;;;;;;;;;;;;;;;18.34;88.58;99549.91;283218;34;4650;-78
2023/06/29 00:52:47;;;;;;;;;;;;;;;18.36;88.83;99549.78;281481;34;5282;-78
2023/06/29 00:52:58;;;;;;;;;;;;;;;18.39;88.48;99557.53;280106;35;1354;-78
2023/06/29 00:53:08;;;;;;;;;;;;;;;18.40;88.59;99548.59;278456;35;5494;-78
2023/06/29 00:53:18;;;;;;;;;;;;;;;18.42;88.50;99557.28;278110;35;6028;-78
2023/06/29 00:53:29;;;;;;;;;;;;;;;18.41;88.38;99552.94;278403;35;1396;-78
2023/06/29 00:53:39;;;;;;;;;;;;;;;18.40;88.49;99554.75;276845;35;4587;-78
2023/06/29 00:53:49;;;;;;;;;;;;;;;18.42;88.51;99547.53;277096;35;4747;-78
2023/06/29 00:54:00;;;;;;;;;;;;;;;18.42;88.37;99546.69;280263;35;877;-78
2023/06/29 00:54:10;;;;;;;;;;;;;;;18.42;88.33;99547.53;273565;35;4437;-79
2023/06/29 00:54:21;;;;;;;;;;;;;;;18.40;88.16;99552.09;273649;35;4252;-79
2023/06/29 00:54:31;;;;;;;;;;;;;;;18.38;88.22;99545.22;276358;35;1586;-79
2023/06/29 00:54:41;;;;;;;;;;;;;;;18.38;88.10;99550.53;270935;36;6117;-79
2023/06/29 00:56:25;;;;;;;;;;;;;;;18.50;87.92;99544.31;2501684;27;19938;-79
2023/06/29 00:56:35;;;;;;;;;;;;;;;18.49;88.25;99539.97;353250;28;1238;-79
2023/06/29 00:56:46;;;;;;;;;;;;;;;18.48;88.42;99543.59;351824;28;1377;-78
2023/06/29 00:56:58;;;;;;;;;;;;;;;18.45;88.19;99539.38;350495;28;1215;-78
2023/06/29 00:57:08;;;;;;;;;;;;;;;18.44;88.02;99536.81;349522;28;2807;-78
2023/06/29 00:57:19;;;;;;;;;;;;;;;18.45;87.94;99542.00;351601;28;1193;-78
2023/06/29 00:57:30;;;;;;;;;;;;;;;18.47;87.82;99547.19;351812;28;3110;-79
2023/06/29 00:57:40;;;;;;;;;;;;;;;18.47;87.85;99544.56;351240;28;3032;-78
2023/06/29 00:57:50;;;;;;;;;;;;;;;18.48;87.84;99538.28;351918;28;1311;-78
2023/06/29 00:58:01;;;;;;;;;;;;;;;18.52;87.74;99543.25;350360;28;1216;-78
2023/06/29 00:58:11;;;;;;;;;;;;;;;18.52;87.98;99543.25;350463;28;1342;-78
2023/06/29 00:58:21;;;;;;;;;;;;;;;18.53;88.10;99541.44;350734;28;898;-78
2023/06/29 00:58:31;;;;;;;;;;;;;;;18.53;88.34;99544.09;348167;28;849;-78
2023/06/29 00:58:42;;;;;;;;;;;;;;;18.53;88.26;99544.09;349226;28;852;-79
2023/06/29 00:58:52;;;;;;;;;;;;;;;18.52;88.14;99542.41;347527;28;1233;-78
2023/06/29 00:59:02;;;;;;;;;;;;;;;18.49;87.82;99547.94;346903;28;765;-78
2023/06/29 00:59:13;;;;;;;;;;;;;;;18.48;87.83;99546.25;346789;28;1165;-78
2023/06/29 00:59:23;;;;;;;;;;;;;;;18.44;87.87;99539.47;347838;28;788;-78
2023/06/29 00:59:34;;;;;;;;;;;;;;;18.37;87.78;99543.53;346457;28;1216;-78
2023/06/29 00:59:44;;;;;;;;;;;;;;;18.29;87.73;99539.66;347976;28;899;-78
2023/06/29 00:59:54;;;;;;;;;;;;;;;18.25;87.64;99538.19;351902;28;1226;-78
2023/06/29 01:00:10;;;;;;;;;;;;;;;18.23;87.85;99542.75;351879;28;812;-78
2023/06/29 01:00:20;;;;;;;;;;;;;;;18.22;87.91;99542.84;348979;28;1556;-78
2023/06/29 01:00:30;;;;;;;;;;;;;;;18.23;88.10;99542.75;349348;28;1325;-79
2023/06/29 01:00:41;;;;;;;;;;;;;;;18.25;88.20;99545.28;349357;28;1297;-78
2023/06/29 01:00:51;;;;;;;;;;;;;;;18.22;88.34;99543.69;350531;28;1015;-77
2023/06/29 01:01:01;;;;;;;;;;;;;;;18.13;88.68;99541.75;348957;28;1284;-77
2023/06/29 01:01:11;;;;;;;;;;;;;;;18.11;88.86;99543.66;347704;28;1342;-77
2023/06/29 01:01:22;;;;;;;;;;;;;;;18.10;89.00;99541.13;351934;28;1414;-78
2023/06/29 01:01:32;;;;;;;;;;;;;;;18.11;89.39;99548.13;350426;28;1203;-78
2023/06/29 01:01:42;;;;;;;;;;;;;;;18.13;89.25;99544.41;350495;28;1359;-78
2023/06/29 01:01:52;;;;;;;;;;;;;;;18.13;89.24;99541.75;347816;28;1188;-78